Portada
METAR-TAF:

METAR-TAF

Aeroports :

Porter County Municipal Airport

Valparaiso, Indiana, Estats Units d'Amèrica

latitud: 41-27-11N, longitud: 086-59-53W, altitud: 234 m

Observació

L'informe es va fer fa 20 minuts, a les 12:44 UTC
Vent 8 kt del Oest/Nord-Oest
Temperatura 21°C
Humitat 88%
Pressió 1012 hPa
Visibilitat: 4.0 km
Cel ennuvolat a una alçada de 500 ft
Cel cobert a una alçada de 1300 ft
boirina

METAR: KVPZ 201244Z AUTO 29008KT 2 1/2SM BR BKN005 OVC013 21/19 A2987 RMK AO2 T02060189

Hora: 08:04 (13:04 UTC)


TAF: manca

Observacions i pronòstics meteorològics de més de 4000 aeroports (METAR i TAF).

Les estacions disponibles són els punts grocs i vermells al mapa.

Posi el ratolí al punt desitjat per veure el nom de l'estació.

Feu clic per veure les observacions i els pronòstics meteorològics.

Per canviar el mapa: feu clic els botons verds amb una creu de color negre per apropar; al botó verd amb un guió per allunyar la imatge; o en les fletxes verdes per a mapes adjacents.


METAR-TAF: